sensor_id;sensor_type;location;lat;lon;timestamp;temperature;humidity
11320;DHT22;5715;48.234;14.320;2023-07-16T00:01:21;22.00;99.90
11320;DHT22;5715;48.234;14.320;2023-07-16T00:04:09;22.10;99.90
11320;DHT22;5715;48.234;14.320;2023-07-16T00:06:56;22.10;99.90
11320;DHT22;5715;48.234;14.320;2023-07-16T00:09:46;22.10;99.90
11320;DHT22;5715;48.234;14.320;2023-07-16T00:12:34;22.00;99.90
11320;DHT22;5715;48.234;14.320;2023-07-16T00:15:21;21.90;99.90
11320;DHT22;5715;48.234;14.320;2023-07-16T00:18:09;21.90;99.90
11320;DHT22;5715;48.234;14.320;2023-07-16T00:20:57;21.80;99.90
11320;DHT22;5715;48.234;14.320;2023-07-16T00:23:48;21.70;99.90
11320;DHT22;5715;48.234;14.320;2023-07-16T00:26:36;21.60;99.90
11320;DHT22;5715;48.234;14.320;2023-07-16T00:29:24;21.50;99.90
11320;DHT22;5715;48.234;14.320;2023-07-16T00:32:12;21.40;99.90
11320;DHT22;5715;48.234;14.320;2023-07-16T00:35:01;21.30;99.90
11320;DHT22;5715;48.234;14.320;2023-07-16T00:37:49;21.30;99.90
11320;DHT22;5715;48.234;14.320;2023-07-16T00:40:36;21.20;99.90
11320;DHT22;5715;48.234;14.320;2023-07-16T00:43:24;21.20;99.90
11320;DHT22;5715;48.234;14.320;2023-07-16T00:46:12;21.10;99.90
11320;DHT22;5715;48.234;14.320;2023-07-16T00:49:01;21.00;99.90
11320;DHT22;5715;48.234;14.320;2023-07-16T00:51:49;21.00;99.90
11320;DHT22;5715;48.234;14.320;2023-07-16T00:54:39;20.90;99.90
11320;DHT22;5715;48.234;14.320;2023-07-16T00:57:27;20.80;99.90
11320;DHT22;5715;48.234;14.320;2023-07-16T01:00:16;20.80;99.90
11320;DHT22;5715;48.234;14.320;2023-07-16T01:03:06;20.70;99.90
11320;DHT22;5715;48.234;14.320;2023-07-16T01:06:25;20.60;99.90
11320;DHT22;5715;48.234;14.320;2023-07-16T01:09:24;20.60;99.90
11320;DHT22;5715;48.234;14.320;2023-07-16T01:12:12;20.60;99.90
11320;DHT22;5715;48.234;14.320;2023-07-16T01:15:01;20.60;99.90
11320;DHT22;5715;48.234;14.320;2023-07-16T01:17:49;20.60;99.90
11320;DHT22;5715;48.234;14.320;2023-07-16T01:20:36;20.60;99.90
11320;DHT22;5715;48.234;14.320;2023-07-16T01:30:17;20.70;99.90
11320;DHT22;5715;48.234;14.320;2023-07-16T01:32:59;20.80;99.90
11320;DHT22;5715;48.234;14.320;2023-07-16T01:35:50;20.80;99.90
11320;DHT22;5715;48.234;14.320;2023-07-16T01:38:38;20.90;99.90
11320;DHT22;5715;48.234;14.320;2023-07-16T01:41:26;20.90;99.90
11320;DHT22;5715;48.234;14.320;2023-07-16T01:44:14;20.90;99.90
11320;DHT22;5715;48.234;14.320;2023-07-16T01:50:12;20.80;99.90
11320;DHT22;5715;48.234;14.320;2023-07-16T01:53:00;20.80;99.90
11320;DHT22;5715;48.234;14.320;2023-07-16T01:55:47;20.90;99.90
11320;DHT22;5715;48.234;14.320;2023-07-16T01:58:35;20.90;99.90
11320;DHT22;5715;48.234;14.320;2023-07-16T02:01:26;21.00;99.90
11320;DHT22;5715;48.234;14.320;2023-07-16T02:04:13;21.00;99.90
11320;DHT22;5715;48.234;14.320;2023-07-16T02:07:01;20.90;99.90
11320;DHT22;5715;48.234;14.320;2023-07-16T02:09:48;20.90;99.90
11320;DHT22;5715;48.234;14.320;2023-07-16T02:12:36;20.70;99.90
11320;DHT22;5715;48.234;14.320;2023-07-16T02:15:23;20.50;99.90
11320;DHT22;5715;48.234;14.320;2023-07-16T02:18:11;20.40;99.90
11320;DHT22;5715;48.234;14.320;2023-07-16T02:20:59;20.40;99.90
11320;DHT22;5715;48.234;14.320;2023-07-16T02:23:46;20.30;99.90
11320;DHT22;5715;48.234;14.320;2023-07-16T02:26:34;20.40;99.90
11320;DHT22;5715;48.234;14.320;2023-07-16T02:29:21;20.40;99.90
11320;DHT22;5715;48.234;14.320;2023-07-16T02:32:09;20.40;99.90
11320;DHT22;5715;48.234;14.320;2023-07-16T02:34:57;20.40;99.90
11320;DHT22;5715;48.234;14.320;2023-07-16T02:37:44;20.50;99.90
11320;DHT22;5715;48.234;14.320;2023-07-16T02:40:32;20.40;99.90
11320;DHT22;5715;48.234;14.320;2023-07-16T02:43:20;20.40;99.90
11320;DHT22;5715;48.234;14.320;2023-07-16T02:46:07;20.40;99.90
11320;DHT22;5715;48.234;14.320;2023-07-16T02:48:55;20.50;99.90
11320;DHT22;5715;48.234;14.320;2023-07-16T02:51:43;20.50;99.90
11320;DHT22;5715;48.234;14.320;2023-07-16T02:54:30;20.60;99.90
11320;DHT22;5715;48.234;14.320;2023-07-16T02:57:18;20.70;99.90
11320;DHT22;5715;48.234;14.320;2023-07-16T03:00:06;20.90;99.90
11320;DHT22;5715;48.234;14.320;2023-07-16T03:02:54;21.00;99.90
11320;DHT22;5715;48.234;14.320;2023-07-16T03:05:42;21.20;99.90
11320;DHT22;5715;48.234;14.320;2023-07-16T03:08:29;21.40;99.90
11320;DHT22;5715;48.234;14.320;2023-07-16T03:11:18;21.50;99.90
11320;DHT22;5715;48.234;14.320;2023-07-16T03:14:06;21.60;99.90
11320;DHT22;5715;48.234;14.320;2023-07-16T03:16:53;21.70;99.90
11320;DHT22;5715;48.234;14.320;2023-07-16T03:19:41;22.00;99.90
11320;DHT22;5715;48.234;14.320;2023-07-16T03:22:29;22.20;99.90
11320;DHT22;5715;48.234;14.320;2023-07-16T03:25:16;22.50;99.90
11320;DHT22;5715;48.234;14.320;2023-07-16T03:28:04;22.60;99.90
11320;DHT22;5715;48.234;14.320;2023-07-16T03:30:52;22.80;99.90
11320;DHT22;5715;48.234;14.320;2023-07-16T03:33:41;22.90;99.90
11320;DHT22;5715;48.234;14.320;2023-07-16T03:36:28;22.90;99.90
11320;DHT22;5715;48.234;14.320;2023-07-16T03:39:16;23.00;99.90
11320;DHT22;5715;48.234;14.320;2023-07-16T03:42:05;23.00;99.90
11320;DHT22;5715;48.234;14.320;2023-07-16T03:44:52;23.00;99.90
11320;DHT22;5715;48.234;14.320;2023-07-16T03:47:40;23.10;99.90
11320;DHT22;5715;48.234;14.320;2023-07-16T03:50:28;23.10;99.90
11320;DHT22;5715;48.234;14.320;2023-07-16T03:53:15;23.10;99.90
11320;DHT22;5715;48.234;14.320;2023-07-16T03:56:03;23.20;99.90
11320;DHT22;5715;48.234;14.320;2023-07-16T03:58:51;23.30;99.90
11320;DHT22;5715;48.234;14.320;2023-07-16T04:01:38;23.30;99.90
11320;DHT22;5715;48.234;14.320;2023-07-16T04:04:26;23.40;99.90
11320;DHT22;5715;48.234;14.320;2023-07-16T04:07:14;23.50;99.90
11320;DHT22;5715;48.234;14.320;2023-07-16T04:10:02;23.60;99.90
11320;DHT22;5715;48.234;14.320;2023-07-16T04:12:50;23.60;99.90
11320;DHT22;5715;48.234;14.320;2023-07-16T04:15:37;23.60;99.90
11320;DHT22;5715;48.234;14.320;2023-07-16T04:18:26;23.50;99.90
11320;DHT22;5715;48.234;14.320;2023-07-16T04:21:13;23.50;99.90
11320;DHT22;5715;48.234;14.320;2023-07-16T04:24:02;23.50;99.90
11320;DHT22;5715;48.234;14.320;2023-07-16T04:26:50;23.60;99.90
11320;DHT22;5715;48.234;14.320;2023-07-16T04:29:38;23.70;99.90
11320;DHT22;5715;48.234;14.320;2023-07-16T04:32:25;23.80;99.90
11320;DHT22;5715;48.234;14.320;2023-07-16T04:35:13;23.90;99.90
11320;DHT22;5715;48.234;14.320;2023-07-16T04:38:01;23.90;99.90
11320;DHT22;5715;48.234;14.320;2023-07-16T04:40:48;23.90;99.90
11320;DHT22;5715;48.234;14.320;2023-07-16T04:43:36;23.90;99.90
11320;DHT22;5715;48.234;14.320;2023-07-16T04:46:24;23.90;99.90
11320;DHT22;5715;48.234;14.320;2023-07-16T04:49:11;23.80;99.90
11320;DHT22;5715;48.234;14.320;2023-07-16T04:51:59;23.80;99.90
11320;DHT22;5715;48.234;14.320;2023-07-16T04:54:47;23.80;99.90
11320;DHT22;5715;48.234;14.320;2023-07-16T04:57:34;23.80;99.90
11320;DHT22;5715;48.234;14.320;2023-07-16T05:00:23;23.80;99.90
11320;DHT22;5715;48.234;14.320;2023-07-16T05:03:10;23.70;99.90
11320;DHT22;5715;48.234;14.320;2023-07-16T05:05:58;23.70;99.90
11320;DHT22;5715;48.234;14.320;2023-07-16T05:08:46;23.50;99.90
11320;DHT22;5715;48.234;14.320;2023-07-16T05:11:34;23.50;99.90
11320;DHT22;5715;48.234;14.320;2023-07-16T05:14:22;23.50;99.90
11320;DHT22;5715;48.234;14.320;2023-07-16T05:17:14;23.40;99.90
11320;DHT22;5715;48.234;14.320;2023-07-16T05:20:03;23.40;99.90
11320;DHT22;5715;48.234;14.320;2023-07-16T05:22:51;23.40;99.90
11320;DHT22;5715;48.234;14.320;2023-07-16T05:25:39;23.40;99.90
11320;DHT22;5715;48.234;14.320;2023-07-16T05:28:26;23.40;99.90
11320;DHT22;5715;48.234;14.320;2023-07-16T05:31:14;23.40;99.90
11320;DHT22;5715;48.234;14.320;2023-07-16T05:34:01;23.40;99.90
11320;DHT22;5715;48.234;14.320;2023-07-16T05:36:52;23.40;99.90
11320;DHT22;5715;48.234;14.320;2023-07-16T05:39:41;23.40;99.90
11320;DHT22;5715;48.234;14.320;2023-07-16T05:42:29;23.50;99.90
11320;DHT22;5715;48.234;14.320;2023-07-16T05:45:17;23.50;99.90
11320;DHT22;5715;48.234;14.320;2023-07-16T05:48:05;23.50;99.90
11320;DHT22;5715;48.234;14.320;2023-07-16T05:50:53;23.60;99.90
11320;DHT22;5715;48.234;14.320;2023-07-16T05:53:40;23.70;99.90
11320;DHT22;5715;48.234;14.320;2023-07-16T05:56:28;23.60;99.90
11320;DHT22;5715;48.234;14.320;2023-07-16T05:59:17;23.60;99.90
11320;DHT22;5715;48.234;14.320;2023-07-16T06:02:06;23.60;99.90
11320;DHT22;5715;48.234;14.320;2023-07-16T06:04:53;23.50;99.90
11320;DHT22;5715;48.234;14.320;2023-07-16T06:07:41;23.30;99.90
11320;DHT22;5715;48.234;14.320;2023-07-16T06:10:28;23.50;99.90
11320;DHT22;5715;48.234;14.320;2023-07-16T06:13:16;23.50;99.90
11320;DHT22;5715;48.234;14.320;2023-07-16T06:16:04;23.50;99.90
11320;DHT22;5715;48.234;14.320;2023-07-16T06:18:52;23.50;99.90
11320;DHT22;5715;48.234;14.320;2023-07-16T06:21:39;23.50;99.90
11320;DHT22;5715;48.234;14.320;2023-07-16T06:24:27;23.60;99.90
11320;DHT22;5715;48.234;14.320;2023-07-16T06:27:14;23.60;99.90
11320;DHT22;5715;48.234;14.320;2023-07-16T06:30:02;23.60;99.90
11320;DHT22;5715;48.234;14.320;2023-07-16T06:32:50;23.60;99.90
11320;DHT22;5715;48.234;14.320;2023-07-16T06:35:38;23.70;99.90
11320;DHT22;5715;48.234;14.320;2023-07-16T06:38:25;23.70;99.90
11320;DHT22;5715;48.234;14.320;2023-07-16T06:41:16;23.70;99.90
11320;DHT22;5715;48.234;14.320;2023-07-16T06:44:03;23.80;99.90
11320;DHT22;5715;48.234;14.320;2023-07-16T06:46:51;23.80;99.90
11320;DHT22;5715;48.234;14.320;2023-07-16T06:49:38;23.80;99.90
11320;DHT22;5715;48.234;14.320;2023-07-16T06:52:26;23.70;99.90
11320;DHT22;5715;48.234;14.320;2023-07-16T06:55:15;23.60;99.90
11320;DHT22;5715;48.234;14.320;2023-07-16T06:58:02;23.50;99.90
11320;DHT22;5715;48.234;14.320;2023-07-16T07:00:50;23.50;99.90
11320;DHT22;5715;48.234;14.320;2023-07-16T07:03:38;23.50;99.90
11320;DHT22;5715;48.234;14.320;2023-07-16T07:06:26;23.50;99.90
11320;DHT22;5715;48.234;14.320;2023-07-16T07:09:13;23.50;99.90
11320;DHT22;5715;48.234;14.320;2023-07-16T07:12:02;23.50;99.90
11320;DHT22;5715;48.234;14.320;2023-07-16T07:14:49;23.50;99.90
11320;DHT22;5715;48.234;14.320;2023-07-16T07:17:37;23.50;99.90
11320;DHT22;5715;48.234;14.320;2023-07-16T07:20:26;23.50;99.90
11320;DHT22;5715;48.234;14.320;2023-07-16T07:23:15;23.40;99.90
11320;DHT22;5715;48.234;14.320;2023-07-16T07:26:03;23.40;99.90
11320;DHT22;5715;48.234;14.320;2023-07-16T07:28:51;23.30;99.90
11320;DHT22;5715;48.234;14.320;2023-07-16T07:31:38;23.40;99.90
11320;DHT22;5715;48.234;14.320;2023-07-16T07:34:26;23.40;99.90
11320;DHT22;5715;48.234;14.320;2023-07-16T07:37:14;23.50;99.90
11320;DHT22;5715;48.234;14.320;2023-07-16T07:40:01;23.50;99.90
11320;DHT22;5715;48.234;14.320;2023-07-16T07:42:50;23.50;99.90
11320;DHT22;5715;48.234;14.320;2023-07-16T07:45:38;23.70;99.90
11320;DHT22;5715;48.234;14.320;2023-07-16T07:48:25;23.70;99.90
11320;DHT22;5715;48.234;14.320;2023-07-16T07:51:13;23.90;99.90
11320;DHT22;5715;48.234;14.320;2023-07-16T07:54:01;24.00;99.90
11320;DHT22;5715;48.234;14.320;2023-07-16T07:56:48;24.10;99.90
11320;DHT22;5715;48.234;14.320;2023-07-16T07:59:36;24.20;99.90
11320;DHT22;5715;48.234;14.320;2023-07-16T08:02:24;24.30;99.90
11320;DHT22;5715;48.234;14.320;2023-07-16T08:05:12;24.40;99.90
11320;DHT22;5715;48.234;14.320;2023-07-16T08:08:00;24.40;99.90
11320;DHT22;5715;48.234;14.320;2023-07-16T08:10:47;24.30;99.90
11320;DHT22;5715;48.234;14.320;2023-07-16T08:13:35;24.20;99.90
11320;DHT22;5715;48.234;14.320;2023-07-16T08:16:22;24.40;99.90
11320;DHT22;5715;48.234;14.320;2023-07-16T08:19:10;24.30;99.90
11320;DHT22;5715;48.234;14.320;2023-07-16T08:21:57;24.40;99.90
11320;DHT22;5715;48.234;14.320;2023-07-16T08:24:45;24.20;99.90
11320;DHT22;5715;48.234;14.320;2023-07-16T08:27:33;24.10;99.90
11320;DHT22;5715;48.234;14.320;2023-07-16T08:30:21;24.20;99.90
11320;DHT22;5715;48.234;14.320;2023-07-16T08:33:09;24.20;99.90
11320;DHT22;5715;48.234;14.320;2023-07-16T08:35:59;24.30;99.90
11320;DHT22;5715;48.234;14.320;2023-07-16T08:38:46;24.50;99.90
11320;DHT22;5715;48.234;14.320;2023-07-16T08:41:34;24.80;99.90
11320;DHT22;5715;48.234;14.320;2023-07-16T08:44:22;25.00;99.90
11320;DHT22;5715;48.234;14.320;2023-07-16T08:47:10;25.30;99.90
11320;DHT22;5715;48.234;14.320;2023-07-16T08:49:58;25.50;99.90
11320;DHT22;5715;48.234;14.320;2023-07-16T08:52:47;25.50;99.90
11320;DHT22;5715;48.234;14.320;2023-07-16T08:55:35;25.60;99.90
11320;DHT22;5715;48.234;14.320;2023-07-16T08:58:24;25.80;99.90
11320;DHT22;5715;48.234;14.320;2023-07-16T09:01:12;26.10;99.90
11320;DHT22;5715;48.234;14.320;2023-07-16T09:04:01;26.30;99.90
11320;DHT22;5715;48.234;14.320;2023-07-16T09:06:48;26.60;99.90
11320;DHT22;5715;48.234;14.320;2023-07-16T09:09:36;26.80;99.90
11320;DHT22;5715;48.234;14.320;2023-07-16T09:12:24;26.90;99.90
11320;DHT22;5715;48.234;14.320;2023-07-16T09:15:18;26.90;99.90
11320;DHT22;5715;48.234;14.320;2023-07-16T09:18:06;27.00;99.90
11320;DHT22;5715;48.234;14.320;2023-07-16T09:20:59;26.90;99.90
11320;DHT22;5715;48.234;14.320;2023-07-16T09:23:50;26.90;99.90
11320;DHT22;5715;48.234;14.320;2023-07-16T09:26:38;26.80;99.90
11320;DHT22;5715;48.234;14.320;2023-07-16T09:29:26;26.90;99.90
11320;DHT22;5715;48.234;14.320;2023-07-16T09:32:14;27.00;99.90
11320;DHT22;5715;48.234;14.320;2023-07-16T09:35:09;26.80;99.90
11320;DHT22;5715;48.234;14.320;2023-07-16T09:37:58;26.90;99.90
11320;DHT22;5715;48.234;14.320;2023-07-16T09:40:46;27.10;99.90
11320;DHT22;5715;48.234;14.320;2023-07-16T09:43:35;27.30;99.90
11320;DHT22;5715;48.234;14.320;2023-07-16T09:46:23;27.30;99.90
11320;DHT22;5715;48.234;14.320;2023-07-16T09:49:11;27.20;99.90
11320;DHT22;5715;48.234;14.320;2023-07-16T09:52:02;26.80;99.90
11320;DHT22;5715;48.234;14.320;2023-07-16T09:54:53;26.80;99.90
11320;DHT22;5715;48.234;14.320;2023-07-16T09:57:44;27.10;99.90
11320;DHT22;5715;48.234;14.320;2023-07-16T10:00:34;27.40;99.90
11320;DHT22;5715;48.234;14.320;2023-07-16T10:03:24;27.60;99.90
11320;DHT22;5715;48.234;14.320;2023-07-16T10:06:13;27.70;99.90
11320;DHT22;5715;48.234;14.320;2023-07-16T10:09:01;27.80;99.90
11320;DHT22;5715;48.234;14.320;2023-07-16T10:11:49;28.00;99.90
11320;DHT22;5715;48.234;14.320;2023-07-16T10:14:41;27.90;99.90
11320;DHT22;5715;48.234;14.320;2023-07-16T10:17:35;28.10;99.90
11320;DHT22;5715;48.234;14.320;2023-07-16T10:20:35;28.10;99.90
11320;DHT22;5715;48.234;14.320;2023-07-16T10:23:41;28.20;99.90
11320;DHT22;5715;48.234;14.320;2023-07-16T10:26:30;28.40;99.90
11320;DHT22;5715;48.234;14.320;2023-07-16T10:29:17;28.60;99.90
11320;DHT22;5715;48.234;14.320;2023-07-16T10:32:06;28.50;99.90
11320;DHT22;5715;48.234;14.320;2023-07-16T10:34:55;28.50;99.90
11320;DHT22;5715;48.234;14.320;2023-07-16T10:37:43;28.50;99.90
11320;DHT22;5715;48.234;14.320;2023-07-16T10:40:31;28.60;99.90
11320;DHT22;5715;48.234;14.320;2023-07-16T10:43:19;28.60;99.90
11320;DHT22;5715;48.234;14.320;2023-07-16T10:46:09;28.70;99.90
11320;DHT22;5715;48.234;14.320;2023-07-16T10:48:56;28.80;99.90
11320;DHT22;5715;48.234;14.320;2023-07-16T10:51:44;28.80;99.90
11320;DHT22;5715;48.234;14.320;2023-07-16T10:54:31;29.00;99.90
11320;DHT22;5715;48.234;14.320;2023-07-16T10:57:20;28.80;99.90
11320;DHT22;5715;48.234;14.320;2023-07-16T11:00:10;29.20;99.90
11320;DHT22;5715;48.234;14.320;2023-07-16T11:02:59;29.40;99.90
11320;DHT22;5715;48.234;14.320;2023-07-16T11:05:47;29.30;99.90
11320;DHT22;5715;48.234;14.320;2023-07-16T11:08:34;29.30;99.90
11320;DHT22;5715;48.234;14.320;2023-07-16T11:11:29;29.20;99.90
11320;DHT22;5715;48.234;14.320;2023-07-16T11:14:18;29.30;99.90
11320;DHT22;5715;48.234;14.320;2023-07-16T11:17:09;29.40;99.90
11320;DHT22;5715;48.234;14.320;2023-07-16T11:19:59;29.70;99.90
11320;DHT22;5715;48.234;14.320;2023-07-16T11:22:50;30.00;99.90
11320;DHT22;5715;48.234;14.320;2023-07-16T11:25:37;29.90;99.90
11320;DHT22;5715;48.234;14.320;2023-07-16T11:28:38;29.90;99.90
11320;DHT22;5715;48.234;14.320;2023-07-16T11:31:27;29.80;99.90
11320;DHT22;5715;48.234;14.320;2023-07-16T11:34:15;29.70;99.90
11320;DHT22;5715;48.234;14.320;2023-07-16T11:37:12;29.70;99.90
11320;DHT22;5715;48.234;14.320;2023-07-16T11:40:08;29.50;99.90
11320;DHT22;5715;48.234;14.320;2023-07-16T11:42:56;29.70;99.90
11320;DHT22;5715;48.234;14.320;2023-07-16T11:45:48;29.90;99.90
11320;DHT22;5715;48.234;14.320;2023-07-16T11:48:36;29.80;99.90
11320;DHT22;5715;48.234;14.320;2023-07-16T11:51:24;30.10;99.90
11320;DHT22;5715;48.234;14.320;2023-07-16T11:54:12;30.00;99.90
11320;DHT22;5715;48.234;14.320;2023-07-16T11:57:02;29.90;99.90
11320;DHT22;5715;48.234;14.320;2023-07-16T11:59:49;30.20;99.90
11320;DHT22;5715;48.234;14.320;2023-07-16T12:02:37;30.40;99.90
11320;DHT22;5715;48.234;14.320;2023-07-16T12:05:25;30.70;99.90
11320;DHT22;5715;48.234;14.320;2023-07-16T12:08:35;30.90;99.90
11320;DHT22;5715;48.234;14.320;2023-07-16T12:11:23;31.00;99.90
11320;DHT22;5715;48.234;14.320;2023-07-16T12:14:12;30.90;99.90
11320;DHT22;5715;48.234;14.320;2023-07-16T12:17:00;30.80;99.90
11320;DHT22;5715;48.234;14.320;2023-07-16T12:19:48;30.60;99.90
11320;DHT22;5715;48.234;14.320;2023-07-16T12:22:35;30.80;99.90
11320;DHT22;5715;48.234;14.320;2023-07-16T12:25:23;30.90;99.90
11320;DHT22;5715;48.234;14.320;2023-07-16T12:28:11;31.00;99.90
11320;DHT22;5715;48.234;14.320;2023-07-16T12:30:59;31.30;99.90
11320;DHT22;5715;48.234;14.320;2023-07-16T12:33:47;31.40;99.90
11320;DHT22;5715;48.234;14.320;2023-07-16T12:36:35;31.60;99.90
11320;DHT22;5715;48.234;14.320;2023-07-16T12:39:22;31.50;99.90
11320;DHT22;5715;48.234;14.320;2023-07-16T12:42:10;31.10;99.90
11320;DHT22;5715;48.234;14.320;2023-07-16T12:44:58;31.20;99.90
11320;DHT22;5715;48.234;14.320;2023-07-16T12:47:45;31.30;99.90
11320;DHT22;5715;48.234;14.320;2023-07-16T12:50:33;31.30;99.90
11320;DHT22;5715;48.234;14.320;2023-07-16T12:53:20;31.50;99.90
11320;DHT22;5715;48.234;14.320;2023-07-16T12:56:08;31.80;99.90
11320;DHT22;5715;48.234;14.320;2023-07-16T12:58:58;32.00;99.90
11320;DHT22;5715;48.234;14.320;2023-07-16T13:01:46;31.80;99.90
11320;DHT22;5715;48.234;14.320;2023-07-16T13:04:34;31.80;99.90
11320;DHT22;5715;48.234;14.320;2023-07-16T13:07:21;31.60;99.90
11320;DHT22;5715;48.234;14.320;2023-07-16T13:10:09;31.90;99.90
11320;DHT22;5715;48.234;14.320;2023-07-16T13:13:10;32.00;99.90
11320;DHT22;5715;48.234;14.320;2023-07-16T13:15:57;32.00;99.90
11320;DHT22;5715;48.234;14.320;2023-07-16T13:18:45;32.10;99.90
11320;DHT22;5715;48.234;14.320;2023-07-16T13:21:33;32.10;99.90
11320;DHT22;5715;48.234;14.320;2023-07-16T13:24:20;32.20;99.90
11320;DHT22;5715;48.234;14.320;2023-07-16T13:27:19;32.50;99.90
11320;DHT22;5715;48.234;14.320;2023-07-16T13:30:08;32.50;99.90
11320;DHT22;5715;48.234;14.320;2023-07-16T13:32:56;32.50;99.90
11320;DHT22;5715;48.234;14.320;2023-07-16T13:35:43;32.60;99.90
11320;DHT22;5715;48.234;14.320;2023-07-16T13:38:31;32.50;99.90
11320;DHT22;5715;48.234;14.320;2023-07-16T13:41:18;32.60;99.90
11320;DHT22;5715;48.234;14.320;2023-07-16T13:44:06;32.70;99.90
11320;DHT22;5715;48.234;14.320;2023-07-16T13:46:53;32.90;99.90
11320;DHT22;5715;48.234;14.320;2023-07-16T13:49:41;33.20;99.90
11320;DHT22;5715;48.234;14.320;2023-07-16T13:52:29;33.40;99.90
11320;DHT22;5715;48.234;14.320;2023-07-16T13:55:16;33.30;99.90
11320;DHT22;5715;48.234;14.320;2023-07-16T13:58:04;33.30;99.90
11320;DHT22;5715;48.234;14.320;2023-07-16T14:00:51;33.50;99.90
11320;DHT22;5715;48.234;14.320;2023-07-16T14:03:39;33.50;99.90
11320;DHT22;5715;48.234;14.320;2023-07-16T14:06:27;33.60;99.90
11320;DHT22;5715;48.234;14.320;2023-07-16T14:09:14;33.60;99.90
11320;DHT22;5715;48.234;14.320;2023-07-16T14:12:02;33.60;99.10
11320;DHT22;5715;48.234;14.320;2023-07-16T14:14:50;33.60;99.80
11320;DHT22;5715;48.234;14.320;2023-07-16T14:17:37;33.80;99.60
11320;DHT22;5715;48.234;14.320;2023-07-16T14:20:25;33.80;99.90
11320;DHT22;5715;48.234;14.320;2023-07-16T14:23:12;33.80;99.30
11320;DHT22;5715;48.234;14.320;2023-07-16T14:26:00;33.80;99.90
11320;DHT22;5715;48.234;14.320;2023-07-16T14:28:49;33.80;98.30
11320;DHT22;5715;48.234;14.320;2023-07-16T14:31:37;33.60;99.90
11320;DHT22;5715;48.234;14.320;2023-07-16T14:34:26;33.50;99.20
11320;DHT22;5715;48.234;14.320;2023-07-16T14:37:14;33.60;98.70
11320;DHT22;5715;48.234;14.320;2023-07-16T14:40:01;33.70;98.70
11320;DHT22;5715;48.234;14.320;2023-07-16T14:42:52;33.80;98.20
11320;DHT22;5715;48.234;14.320;2023-07-16T14:45:40;33.70;98.20
11320;DHT22;5715;48.234;14.320;2023-07-16T14:48:27;33.70;97.70
11320;DHT22;5715;48.234;14.320;2023-07-16T14:51:15;33.70;98.10
11320;DHT22;5715;48.234;14.320;2023-07-16T14:54:02;33.70;99.00
11320;DHT22;5715;48.234;14.320;2023-07-16T14:56:50;33.70;98.20
11320;DHT22;5715;48.234;14.320;2023-07-16T14:59:38;33.70;98.50
11320;DHT22;5715;48.234;14.320;2023-07-16T15:02:27;33.40;98.90
11320;DHT22;5715;48.234;14.320;2023-07-16T15:05:15;33.60;98.40
11320;DHT22;5715;48.234;14.320;2023-07-16T15:08:02;33.40;98.50
11320;DHT22;5715;48.234;14.320;2023-07-16T15:10:50;33.40;99.10
11320;DHT22;5715;48.234;14.320;2023-07-16T15:13:39;33.50;98.30
11320;DHT22;5715;48.234;14.320;2023-07-16T15:16:26;33.60;98.80
11320;DHT22;5715;48.234;14.320;2023-07-16T15:19:14;33.60;98.00
11320;DHT22;5715;48.234;14.320;2023-07-16T15:22:04;33.50;98.50
11320;DHT22;5715;48.234;14.320;2023-07-16T15:24:55;33.60;98.40
11320;DHT22;5715;48.234;14.320;2023-07-16T15:27:44;33.70;97.90
11320;DHT22;5715;48.234;14.320;2023-07-16T15:30:31;33.70;98.10
11320;DHT22;5715;48.234;14.320;2023-07-16T15:33:19;33.70;98.40
11320;DHT22;5715;48.234;14.320;2023-07-16T15:36:06;33.70;97.60
11320;DHT22;5715;48.234;14.320;2023-07-16T15:38:54;33.80;97.90
11320;DHT22;5715;48.234;14.320;2023-07-16T15:41:42;33.70;97.20
11320;DHT22;5715;48.234;14.320;2023-07-16T15:44:30;33.80;97.50
11320;DHT22;5715;48.234;14.320;2023-07-16T15:47:18;33.80;97.60
11320;DHT22;5715;48.234;14.320;2023-07-16T15:50:06;33.70;97.50
11320;DHT22;5715;48.234;14.320;2023-07-16T15:52:54;33.80;97.40
11320;DHT22;5715;48.234;14.320;2023-07-16T15:55:42;33.90;98.00
11320;DHT22;5715;48.234;14.320;2023-07-16T15:58:31;33.90;97.80
11320;DHT22;5715;48.234;14.320;2023-07-16T16:01:18;33.90;97.70
11320;DHT22;5715;48.234;14.320;2023-07-16T16:04:06;33.60;97.60
11320;DHT22;5715;48.234;14.320;2023-07-16T16:06:54;33.60;97.90
11320;DHT22;5715;48.234;14.320;2023-07-16T16:09:42;33.40;98.20
11320;DHT22;5715;48.234;14.320;2023-07-16T16:12:29;33.20;98.30
11320;DHT22;5715;48.234;14.320;2023-07-16T16:15:17;33.30;98.40
11320;DHT22;5715;48.234;14.320;2023-07-16T16:18:04;33.30;98.40
11320;DHT22;5715;48.234;14.320;2023-07-16T16:20:52;33.20;98.20
11320;DHT22;5715;48.234;14.320;2023-07-16T16:23:40;33.20;99.00
11320;DHT22;5715;48.234;14.320;2023-07-16T16:26:28;33.30;98.30
11320;DHT22;5715;48.234;14.320;2023-07-16T16:29:16;33.30;98.20
11320;DHT22;5715;48.234;14.320;2023-07-16T16:32:04;33.40;98.20
11320;DHT22;5715;48.234;14.320;2023-07-16T16:34:52;33.50;98.50
11320;DHT22;5715;48.234;14.320;2023-07-16T16:37:40;33.70;98.60
11320;DHT22;5715;48.234;14.320;2023-07-16T16:40:29;33.70;98.20
11320;DHT22;5715;48.234;14.320;2023-07-16T16:43:18;33.70;98.10
11320;DHT22;5715;48.234;14.320;2023-07-16T16:46:05;33.60;98.30
11320;DHT22;5715;48.234;14.320;2023-07-16T16:48:53;33.70;98.50
11320;DHT22;5715;48.234;14.320;2023-07-16T16:51:41;33.80;98.70
11320;DHT22;5715;48.234;14.320;2023-07-16T16:54:29;33.80;98.40
11320;DHT22;5715;48.234;14.320;2023-07-16T16:57:19;33.90;98.40
11320;DHT22;5715;48.234;14.320;2023-07-16T17:00:07;34.10;98.10
11320;DHT22;5715;48.234;14.320;2023-07-16T17:03:00;34.40;97.90
11320;DHT22;5715;48.234;14.320;2023-07-16T17:05:51;34.70;97.30
11320;DHT22;5715;48.234;14.320;2023-07-16T17:08:43;35.20;97.20
11320;DHT22;5715;48.234;14.320;2023-07-16T17:11:30;35.60;97.10
11320;DHT22;5715;48.234;14.320;2023-07-16T17:14:18;36.00;97.10
11320;DHT22;5715;48.234;14.320;2023-07-16T17:17:05;36.20;97.00
11320;DHT22;5715;48.234;14.320;2023-07-16T17:19:56;36.50;97.00
11320;DHT22;5715;48.234;14.320;2023-07-16T17:22:43;36.70;96.40
11320;DHT22;5715;48.234;14.320;2023-07-16T17:25:31;36.60;96.20
11320;DHT22;5715;48.234;14.320;2023-07-16T17:28:19;36.50;96.50
11320;DHT22;5715;48.234;14.320;2023-07-16T17:31:06;36.40;96.60
11320;DHT22;5715;48.234;14.320;2023-07-16T17:33:54;36.60;96.50
11320;DHT22;5715;48.234;14.320;2023-07-16T17:36:41;36.50;96.30
11320;DHT22;5715;48.234;14.320;2023-07-16T17:39:29;36.40;96.50
11320;DHT22;5715;48.234;14.320;2023-07-16T17:42:16;36.40;96.40
11320;DHT22;5715;48.234;14.320;2023-07-16T17:45:05;36.30;96.40
11320;DHT22;5715;48.234;14.320;2023-07-16T17:47:53;36.10;96.70
11320;DHT22;5715;48.234;14.320;2023-07-16T17:50:41;35.50;97.40
11320;DHT22;5715;48.234;14.320;2023-07-16T17:53:29;34.90;97.60